Time;durP1;ratioP1;P1;durP2;ratioP2;P2;SDS_P1;SDS_P2;PMS_P1;PMS_P2;Temp;Humidity;BMP_temperature;BMP_pressure;BME280_temperature;BME280_humidity;BME280_pressure;Samples;Min_cycle;Max_cycle;Signal;HPM_P1;HPM_P2
2023/07/19 00:02:05;;;;;;;;;;;12.10;92.10;;;;;;5110892;28;19964;-65
2023/07/19 00:04:32;;;;;;;;;;;12.20;92.10;;;;;;5102206;28;19961;-64
2023/07/19 00:06:58;;;;;;;;;;;12.20;91.60;;;;;;5114236;28;19953;-68
2023/07/19 00:09:25;;;;;;;;;;;12.10;91.70;;;;;;5113127;28;20006;-67
2023/07/19 00:11:52;;;;;;;;;;;12.30;91.10;;;;;;5112739;28;19953;-67
2023/07/19 00:14:18;;;;;;;;;;;12.30;90.90;;;;;;5113508;28;19965;-65
2023/07/19 00:16:45;;;;;;;;;;;12.40;90.30;;;;;;5113030;28;19981;-62
2023/07/19 00:19:11;;;;;;;;;;;12.50;90.20;;;;;;5109239;28;20364;-61
2023/07/19 00:21:38;;;;;;;;;;;12.60;90.30;;;;;;5096402;28;20369;-68
2023/07/19 00:24:05;;;;;;;;;;;12.60;89.70;;;;;;5094237;28;19912;-63
2023/07/19 00:26:31;;;;;;;;;;;12.60;88.60;;;;;;5097001;28;19912;-65
2023/07/19 00:28:58;;;;;;;;;;;12.60;88.30;;;;;;5093865;28;20612;-64
2023/07/19 00:31:25;;;;;;;;;;;12.80;87.60;;;;;;5107437;28;20300;-67
2023/07/19 00:33:51;;;;;;;;;;;12.90;87.30;;;;;;5110212;28;19916;-65
2023/07/19 00:36:18;;;;;;;;;;;12.90;87.70;;;;;;5112073;28;19912;-63
2023/07/19 00:38:45;;;;;;;;;;;13.00;88.00;;;;;;5106022;28;19912;-64
2023/07/19 00:41:11;;;;;;;;;;;13.10;87.20;;;;;;5093955;28;20401;-62
2023/07/19 00:43:38;;;;;;;;;;;13.20;86.40;;;;;;5103789;28;20505;-62
2023/07/19 00:46:06;;;;;;;;;;;13.30;86.10;;;;;;5106959;28;20257;-67
2023/07/19 00:48:32;;;;;;;;;;;13.30;86.00;;;;;;5096080;28;19927;-66
2023/07/19 00:51:02;;;;;;;;;;;13.40;85.90;;;;;;5104536;28;20218;-66
2023/07/19 00:53:30;;;;;;;;;;;13.50;85.40;;;;;;5103348;28;19916;-66
2023/07/19 00:55:56;;;;;;;;;;;13.60;85.00;;;;;;5103759;28;19912;-66
2023/07/19 00:58:26;;;;;;;;;;;13.50;83.90;;;;;;5111909;28;20344;-64
2023/07/19 01:00:53;;;;;;;;;;;13.70;82.80;;;;;;5104771;28;19954;-67
2023/07/19 01:03:19;;;;;;;;;;;13.70;83.30;;;;;;5102078;28;19918;-68
2023/07/19 01:05:46;;;;;;;;;;;13.80;83.20;;;;;;5111258;28;19912;-66
2023/07/19 01:08:13;;;;;;;;;;;13.90;82.70;;;;;;5110590;28;20273;-68
2023/07/19 01:10:40;;;;;;;;;;;13.90;81.80;;;;;;5108040;28;19912;-67
2023/07/19 01:13:08;;;;;;;;;;;14.10;81.50;;;;;;5110664;28;19919;-68
2023/07/19 01:15:35;;;;;;;;;;;14.00;81.80;;;;;;5092243;28;19991;-65
2023/07/19 01:18:01;;;;;;;;;;;14.10;82.10;;;;;;5106000;28;20276;-66
2023/07/19 01:20:28;;;;;;;;;;;14.20;82.60;;;;;;5109739;28;19919;-67
2023/07/19 01:22:55;;;;;;;;;;;14.30;83.90;;;;;;5103411;28;19981;-64
2023/07/19 01:25:23;;;;;;;;;;;14.50;80.60;;;;;;5109433;28;20254;-65
2023/07/19 01:27:50;;;;;;;;;;;14.50;80.70;;;;;;5103260;28;19923;-66
2023/07/19 01:30:16;;;;;;;;;;;14.60;80.50;;;;;;5097616;28;19961;-66
2023/07/19 01:32:44;;;;;;;;;;;14.70;81.10;;;;;;5105493;28;19919;-62
2023/07/19 01:35:11;;;;;;;;;;;14.70;81.00;;;;;;5093621;28;20015;-66
2023/07/19 01:37:37;;;;;;;;;;;14.90;79.50;;;;;;5109674;28;19923;-67
2023/07/19 01:40:05;;;;;;;;;;;14.90;80.20;;;;;;5107844;28;19911;-64
2023/07/19 01:42:32;;;;;;;;;;;15.10;78.60;;;;;;5104928;28;19981;-62
2023/07/19 01:45:01;;;;;;;;;;;15.20;78.30;;;;;;5091714;28;19935;-64
2023/07/19 01:47:27;;;;;;;;;;;15.30;78.50;;;;;;5092433;28;19919;-64
2023/07/19 01:49:55;;;;;;;;;;;15.40;76.40;;;;;;5094899;28;19919;-68
2023/07/19 01:52:21;;;;;;;;;;;15.60;75.10;;;;;;5112235;28;19996;-65
2023/07/19 01:54:48;;;;;;;;;;;15.60;74.50;;;;;;5111768;28;19904;-61
2023/07/19 01:57:15;;;;;;;;;;;15.60;74.60;;;;;;5111410;28;19915;-65
2023/07/19 01:59:42;;;;;;;;;;;15.90;74.10;;;;;;5111461;28;19951;-66
2023/07/19 02:02:09;;;;;;;;;;;15.90;73.70;;;;;;5091825;28;19908;-67
2023/07/19 02:04:35;;;;;;;;;;;16.10;74.10;;;;;;5111039;28;19937;-66
2023/07/19 02:07:02;;;;;;;;;;;16.20;72.50;;;;;;5111070;28;21014;-63
2023/07/19 02:09:29;;;;;;;;;;;16.20;74.40;;;;;;5106212;28;20330;-63
2023/07/19 02:11:55;;;;;;;;;;;16.20;72.50;;;;;;5092998;28;19912;-64
2023/07/19 02:14:22;;;;;;;;;;;16.20;72.20;;;;;;5102708;28;19912;-66
2023/07/19 02:16:48;;;;;;;;;;;16.20;72.20;;;;;;5099149;28;19951;-66
2023/07/19 02:19:15;;;;;;;;;;;16.10;72.40;;;;;;5115602;28;19961;-67
2023/07/19 02:21:42;;;;;;;;;;;16.10;72.50;;;;;;5114777;28;20421;-61
2023/07/19 02:24:08;;;;;;;;;;;16.00;72.40;;;;;;5101069;28;20447;-66
2023/07/19 02:26:35;;;;;;;;;;;16.10;73.00;;;;;;5114131;28;19953;-66
2023/07/19 02:29:02;;;;;;;;;;;15.90;72.90;;;;;;5109358;27;20337;-64
2023/07/19 02:31:28;;;;;;;;;;;16.00;73.80;;;;;;5097610;28;20361;-65
2023/07/19 02:33:55;;;;;;;;;;;15.90;73.30;;;;;;5099716;28;19915;-62
2023/07/19 02:36:22;;;;;;;;;;;15.90;73.60;;;;;;5115643;28;19903;-64
2023/07/19 02:38:48;;;;;;;;;;;16.00;73.60;;;;;;5100655;28;19916;-67
2023/07/19 02:41:15;;;;;;;;;;;16.00;73.20;;;;;;5089563;28;19918;-64
2023/07/19 02:43:42;;;;;;;;;;;16.00;73.50;;;;;;5095073;28;20387;-67
2023/07/19 02:46:09;;;;;;;;;;;16.00;73.50;;;;;;5101600;28;19919;-65
2023/07/19 02:48:35;;;;;;;;;;;16.20;73.60;;;;;;5114923;28;19939;-68
2023/07/19 02:51:02;;;;;;;;;;;16.10;72.60;;;;;;5114966;28;19994;-63
2023/07/19 02:53:29;;;;;;;;;;;16.30;74.20;;;;;;5115360;28;20086;-63
2023/07/19 02:55:55;;;;;;;;;;;16.40;72.70;;;;;;5115137;28;19999;-67
2023/07/19 02:58:23;;;;;;;;;;;16.60;72.80;;;;;;5114251;28;19946;-66
2023/07/19 03:00:49;;;;;;;;;;;16.80;72.90;;;;;;5105681;28;19965;-66
2023/07/19 03:03:16;;;;;;;;;;;17.20;72.50;;;;;;5094974;28;19907;-64
2023/07/19 03:05:46;;;;;;;;;;;17.60;71.20;;;;;;5109219;28;19931;-66
2023/07/19 03:08:13;;;;;;;;;;;18.10;71.20;;;;;;5113831;28;19919;-68
2023/07/19 03:10:39;;;;;;;;;;;18.70;70.60;;;;;;5114327;28;19912;-67
2023/07/19 03:13:07;;;;;;;;;;;19.40;68.40;;;;;;5114930;28;19995;-68
2023/07/19 03:15:34;;;;;;;;;;;20.40;66.50;;;;;;5113959;28;19908;-67
2023/07/19 03:18:04;;;;;;;;;;;21.00;65.50;;;;;;5113833;28;19918;-66
2023/07/19 03:20:31;;;;;;;;;;;21.70;64.50;;;;;;5114662;28;20409;-66
2023/07/19 03:22:59;;;;;;;;;;;22.30;63.50;;;;;;5114804;28;19999;-68
2023/07/19 03:25:27;;;;;;;;;;;22.10;62.70;;;;;;5114446;28;19907;-66
2023/07/19 03:27:53;;;;;;;;;;;21.70;63.20;;;;;;5113509;28;19923;-66
2023/07/19 03:30:20;;;;;;;;;;;21.30;63.30;;;;;;5113938;28;19908;-66
2023/07/19 03:32:47;;;;;;;;;;;20.80;64.60;;;;;;5114660;28;20272;-67
2023/07/19 03:35:14;;;;;;;;;;;20.40;65.80;;;;;;5114216;28;19908;-63
2023/07/19 03:37:44;;;;;;;;;;;20.20;66.70;;;;;;5113551;28;19962;-67
2023/07/19 03:40:11;;;;;;;;;;;20.80;66.10;;;;;;5113233;28;19915;-66
2023/07/19 03:42:38;;;;;;;;;;;22.00;65.10;;;;;;5113644;28;20002;-67
2023/07/19 03:45:05;;;;;;;;;;;23.50;62.70;;;;;;5113618;28;20331;-66
2023/07/19 03:47:32;;;;;;;;;;;24.90;61.20;;;;;;5113669;28;19911;-66
2023/07/19 03:49:58;;;;;;;;;;;26.00;59.70;;;;;;5112126;28;19964;-65
2023/07/19 03:52:25;;;;;;;;;;;27.00;58.70;;;;;;5114086;28;20421;-65
2023/07/19 03:54:52;;;;;;;;;;;27.70;56.90;;;;;;5113250;28;20005;-67
2023/07/19 03:57:19;;;;;;;;;;;27.80;57.30;;;;;;5113734;28;19908;-66
2023/07/19 03:59:46;;;;;;;;;;;28.10;56.10;;;;;;5112472;28;19911;-67
2023/07/19 04:02:12;;;;;;;;;;;27.80;56.20;;;;;;5113201;28;19953;-66
2023/07/19 04:04:39;;;;;;;;;;;27.90;54.70;;;;;;5113454;28;19907;-67
2023/07/19 04:07:06;;;;;;;;;;;27.60;55.00;;;;;;5112561;28;20245;-66
2023/07/19 04:09:33;;;;;;;;;;;27.60;55.30;;;;;;5113624;28;19920;-68
2023/07/19 04:12:00;;;;;;;;;;;27.20;55.00;;;;;;5109339;28;19935;-64
2023/07/19 04:14:26;;;;;;;;;;;27.10;54.50;;;;;;5113596;28;19915;-69
2023/07/19 04:16:53;;;;;;;;;;;27.00;55.20;;;;;;5113446;28;19914;-66
2023/07/19 04:19:20;;;;;;;;;;;27.00;55.30;;;;;;5113328;28;20320;-68
2023/07/19 04:21:47;;;;;;;;;;;26.40;55.60;;;;;;5112546;28;19908;-62
2023/07/19 04:24:14;;;;;;;;;;;25.40;55.60;;;;;;5112922;28;19908;-67
2023/07/19 04:26:40;;;;;;;;;;;23.80;58.00;;;;;;5113165;28;19912;-66
2023/07/19 04:29:07;;;;;;;;;;;22.10;61.40;;;;;;5112802;28;20356;-67
2023/07/19 04:31:34;;;;;;;;;;;20.80;63.50;;;;;;5113047;28;19908;-67
2023/07/19 04:34:00;;;;;;;;;;;19.80;66.70;;;;;;5112678;28;19908;-65
2023/07/19 04:36:27;;;;;;;;;;;19.00;67.40;;;;;;5092253;28;19908;-66
2023/07/19 04:38:53;;;;;;;;;;;18.50;68.30;;;;;;5103226;28;19908;-67
2023/07/19 04:41:20;;;;;;;;;;;18.20;68.60;;;;;;5100392;28;19919;-67
2023/07/19 04:43:47;;;;;;;;;;;18.00;68.90;;;;;;5112981;28;19919;-64
2023/07/19 04:46:13;;;;;;;;;;;17.70;69.70;;;;;;5112264;28;20002;-66
2023/07/19 04:48:40;;;;;;;;;;;17.50;70.10;;;;;;5112422;28;20424;-66
2023/07/19 04:51:07;;;;;;;;;;;17.30;70.60;;;;;;5112635;28;19912;-65
2023/07/19 04:53:33;;;;;;;;;;;17.20;72.00;;;;;;5113222;28;19908;-66
2023/07/19 04:56:00;;;;;;;;;;;17.20;71.90;;;;;;5113052;28;19919;-63
2023/07/19 04:58:27;;;;;;;;;;;17.10;73.50;;;;;;5116313;27;19916;-66
2023/07/19 05:00:54;;;;;;;;;;;17.00;73.40;;;;;;5109499;28;19919;-67
2023/07/19 05:03:21;;;;;;;;;;;16.90;73.00;;;;;;5092607;28;20368;-62
2023/07/19 05:05:48;;;;;;;;;;;16.90;73.60;;;;;;5103350;28;19918;-66
2023/07/19 05:08:15;;;;;;;;;;;16.80;74.00;;;;;;5111872;28;19920;-67
2023/07/19 05:10:41;;;;;;;;;;;16.90;74.80;;;;;;5110473;28;19908;-66
2023/07/19 05:13:08;;;;;;;;;;;17.00;74.60;;;;;;5112425;28;19911;-64
2023/07/19 05:15:35;;;;;;;;;;;17.10;74.90;;;;;;5112969;28;20003;-67
2023/07/19 05:18:01;;;;;;;;;;;17.30;73.70;;;;;;5112017;28;19962;-67
2023/07/19 05:20:28;;;;;;;;;;;17.60;73.60;;;;;;5111689;28;19912;-66
2023/07/19 05:22:55;;;;;;;;;;;17.90;73.40;;;;;;5110372;28;19998;-68
2023/07/19 05:25:22;;;;;;;;;;;18.10;72.90;;;;;;5110812;28;19908;-63
2023/07/19 05:27:48;;;;;;;;;;;18.00;74.20;;;;;;5109032;28;19943;-67
2023/07/19 05:30:15;;;;;;;;;;;17.80;74.10;;;;;;5097885;28;19924;-64
2023/07/19 05:32:42;;;;;;;;;;;17.60;73.80;;;;;;5105684;28;20272;-66
2023/07/19 05:35:08;;;;;;;;;;;17.50;74.20;;;;;;5110319;28;19960;-66
2023/07/19 05:37:35;;;;;;;;;;;17.50;76.20;;;;;;5110804;28;20338;-65
2023/07/19 05:40:04;;;;;;;;;;;17.80;76.20;;;;;;5110250;28;20116;-66
2023/07/19 05:42:31;;;;;;;;;;;17.90;74.40;;;;;;5108924;28;19965;-65
2023/07/19 05:44:57;;;;;;;;;;;17.80;73.00;;;;;;5109818;28;19919;-65
2023/07/19 05:47:24;;;;;;;;;;;17.90;73.70;;;;;;5110170;28;20283;-65
2023/07/19 05:49:51;;;;;;;;;;;18.10;73.80;;;;;;5112058;28;19911;-66
2023/07/19 05:52:17;;;;;;;;;;;18.30;73.20;;;;;;5108193;27;19916;-65
2023/07/19 05:54:45;;;;;;;;;;;18.30;73.40;;;;;;5118841;28;19907;-65
2023/07/19 05:57:12;;;;;;;;;;;18.30;73.50;;;;;;5117652;27;19912;-66
2023/07/19 05:59:38;;;;;;;;;;;18.50;74.00;;;;;;5115473;28;19938;-66
2023/07/19 06:02:05;;;;;;;;;;;18.80;74.10;;;;;;5115687;27;20265;-65
2023/07/19 06:04:32;;;;;;;;;;;19.20;73.20;;;;;;5117083;28;19914;-64
2023/07/19 06:06:58;;;;;;;;;;;19.60;71.70;;;;;;5114429;27;19924;-66
2023/07/19 06:09:25;;;;;;;;;;;19.90;71.20;;;;;;5113375;28;19924;-65
2023/07/19 06:11:56;;;;;;;;;;;20.40;71.10;;;;;;5113924;27;19958;-67
2023/07/19 06:14:23;;;;;;;;;;;20.50;69.90;;;;;;5117204;28;19907;-64
2023/07/19 06:16:50;;;;;;;;;;;20.30;70.60;;;;;;5117415;27;19907;-67
2023/07/19 06:19:19;;;;;;;;;;;20.90;69.40;;;;;;5102703;28;20416;-65
2023/07/19 06:21:46;;;;;;;;;;;21.40;68.40;;;;;;5114324;27;19955;-66
2023/07/19 06:24:13;;;;;;;;;;;21.30;67.80;;;;;;5115784;28;19919;-66
2023/07/19 06:26:39;;;;;;;;;;;20.90;68.60;;;;;;5116732;28;19934;-65
2023/07/19 06:29:06;;;;;;;;;;;20.10;69.10;;;;;;5099579;27;20022;-63
2023/07/19 06:31:32;;;;;;;;;;;19.30;70.90;;;;;;5111165;28;19907;-66
2023/07/19 06:33:59;;;;;;;;;;;18.60;72.80;;;;;;5115588;27;20379;-65
2023/07/19 06:36:26;;;;;;;;;;;17.80;74.70;;;;;;5117703;27;19912;-65
2023/07/19 06:38:53;;;;;;;;;;;17.10;76.60;;;;;;5102144;28;19931;-65
2023/07/19 06:41:19;;;;;;;;;;;16.50;78.30;;;;;;5100984;27;19916;-64
2023/07/19 06:43:46;;;;;;;;;;;16.10;79.40;;;;;;5115173;28;19963;-63
2023/07/19 06:46:13;;;;;;;;;;;16.00;80.20;;;;;;5117656;27;19919;-64
2023/07/19 06:48:40;;;;;;;;;;;15.70;79.90;;;;;;5117330;28;19919;-63
2023/07/19 06:51:07;;;;;;;;;;;15.50;80.70;;;;;;5109804;27;19920;-65
2023/07/19 06:53:34;;;;;;;;;;;15.30;81.30;;;;;;5097394;28;20326;-65
2023/07/19 06:56:01;;;;;;;;;;;15.10;83.10;;;;;;5102524;27;19968;-66
2023/07/19 06:58:28;;;;;;;;;;;14.90;82.80;;;;;;5104973;28;19912;-64
2023/07/19 07:00:55;;;;;;;;;;;14.70;83.60;;;;;;5101308;27;19912;-64
2023/07/19 07:03:22;;;;;;;;;;;14.60;84.60;;;;;;5098233;28;20102;-65
2023/07/19 07:05:49;;;;;;;;;;;14.50;84.80;;;;;;5100673;27;19920;-66
2023/07/19 07:08:16;;;;;;;;;;;14.40;85.00;;;;;;5112498;28;19920;-64
2023/07/19 07:10:43;;;;;;;;;;;14.30;85.70;;;;;;5113682;27;20002;-64
2023/07/19 07:13:10;;;;;;;;;;;14.10;86.20;;;;;;5106601;28;20372;-66
2023/07/19 07:15:37;;;;;;;;;;;14.00;86.50;;;;;;5110762;27;20261;-64
2023/07/19 07:18:04;;;;;;;;;;;13.90;87.00;;;;;;5104411;28;19912;-64
2023/07/19 07:20:30;;;;;;;;;;;13.90;88.10;;;;;;5099899;28;20360;-63
2023/07/19 07:22:57;;;;;;;;;;;13.90;87.90;;;;;;5111718;28;19908;-63
2023/07/19 07:25:23;;;;;;;;;;;13.80;88.50;;;;;;5113985;28;19998;-64
2023/07/19 07:27:50;;;;;;;;;;;13.60;88.90;;;;;;5114471;28;20031;-62
2023/07/19 07:30:17;;;;;;;;;;;13.50;89.50;;;;;;5114741;28;19943;-62
2023/07/19 07:32:44;;;;;;;;;;;13.50;90.10;;;;;;5114517;28;20380;-62
2023/07/19 07:35:11;;;;;;;;;;;13.40;90.20;;;;;;5113766;28;19952;-65
2023/07/19 07:37:39;;;;;;;;;;;13.40;90.60;;;;;;5112960;27;19993;-64
2023/07/19 07:40:08;;;;;;;;;;;13.30;90.80;;;;;;5107065;28;19927;-63
2023/07/19 07:42:35;;;;;;;;;;;13.20;91.00;;;;;;5108607;28;20404;-66
2023/07/19 07:45:02;;;;;;;;;;;13.20;91.40;;;;;;5099205;28;20253;-65
2023/07/19 07:47:29;;;;;;;;;;;13.10;91.30;;;;;;5107061;28;20034;-63
2023/07/19 07:49:56;;;;;;;;;;;13.10;91.50;;;;;;5113288;28;19999;-64
2023/07/19 07:52:22;;;;;;;;;;;13.10;91.90;;;;;;5114210;28;19919;-62
2023/07/19 07:54:49;;;;;;;;;;;13.10;92.10;;;;;;5114568;28;19912;-61
2023/07/19 07:57:16;;;;;;;;;;;12.90;92.50;;;;;;5109076;27;20387;-63
2023/07/19 07:59:43;;;;;;;;;;;12.90;92.70;;;;;;5124081;27;19919;-65
2023/07/19 08:02:10;;;;;;;;;;;12.80;93.00;;;;;;5106087;27;19916;-60
2023/07/19 08:04:37;;;;;;;;;;;12.70;93.50;;;;;;5114891;28;19915;-63
2023/07/19 08:07:03;;;;;;;;;;;12.70;93.60;;;;;;5114330;28;20464;-62
2023/07/19 08:09:30;;;;;;;;;;;12.70;93.90;;;;;;5113851;28;19920;-66
2023/07/19 08:11:57;;;;;;;;;;;12.70;94.30;;;;;;5114045;28;19912;-63
2023/07/19 08:14:23;;;;;;;;;;;12.60;94.40;;;;;;5112729;28;19908;-63
2023/07/19 08:16:51;;;;;;;;;;;12.50;94.60;;;;;;5110476;28;19962;-64
2023/07/19 08:19:18;;;;;;;;;;;12.50;95.20;;;;;;5107455;28;19911;-66
2023/07/19 08:21:44;;;;;;;;;;;12.50;94.80;;;;;;5108319;27;20006;-63
2023/07/19 08:24:11;;;;;;;;;;;12.40;94.90;;;;;;5108312;28;20342;-68
2023/07/19 08:26:39;;;;;;;;;;;12.40;95.20;;;;;;5112311;27;19912;-64
2023/07/19 08:29:06;;;;;;;;;;;12.30;95.50;;;;;;5104628;28;19921;-66
2023/07/19 08:31:34;;;;;;;;;;;12.30;95.50;;;;;;5094972;28;19946;-67
2023/07/19 08:34:00;;;;;;;;;;;12.20;95.90;;;;;;5092809;28;20001;-63
2023/07/19 08:36:27;;;;;;;;;;;12.20;96.30;;;;;;5102109;27;19911;-67
2023/07/19 08:38:53;;;;;;;;;;;12.10;96.30;;;;;;5107067;28;20411;-67
2023/07/19 08:41:24;;;;;;;;;;;12.00;96.60;;;;;;5100487;28;19924;-64
2023/07/19 08:43:51;;;;;;;;;;;12.00;96.90;;;;;;5091235;28;19924;-65
2023/07/19 08:46:18;;;;;;;;;;;12.00;97.10;;;;;;5094270;28;19909;-62
2023/07/19 08:48:47;;;;;;;;;;;11.90;97.30;;;;;;5111421;28;19924;-67
2023/07/19 08:51:14;;;;;;;;;;;11.90;97.60;;;;;;5104757;28;19919;-66
2023/07/19 08:53:41;;;;;;;;;;;11.80;97.80;;;;;;5105858;28;19957;-68
2023/07/19 08:56:08;;;;;;;;;;;11.80;98.00;;;;;;5107310;28;20007;-66
2023/07/19 08:58:37;;;;;;;;;;;11.70;98.20;;;;;;5096906;28;20359;-65
2023/07/19 09:01:04;;;;;;;;;;;11.70;98.50;;;;;;5111446;28;19919;-63
2023/07/19 09:03:31;;;;;;;;;;;11.70;98.80;;;;;;5083534;28;20288;-67
2023/07/19 09:05:57;;;;;;;;;;;11.60;99.20;;;;;;5111488;28;19908;-65
2023/07/19 09:08:37;;;;;;;;;;;11.60;99.60;;;;;;5110861;28;19920;-63
2023/07/19 09:11:04;;;;;;;;;;;11.50;99.80;;;;;;5101410;28;20405;-65
2023/07/19 09:13:32;;;;;;;;;;;11.50;99.80;;;;;;5093264;27;20385;-67
2023/07/19 09:15:59;;;;;;;;;;;11.40;99.90;;;;;;5090955;28;20376;-67
2023/07/19 09:18:33;;;;;;;;;;;11.30;99.90;;;;;;5107932;28;19912;-66
2023/07/19 09:20:59;;;;;;;;;;;11.20;99.90;;;;;;5091830;28;19987;-66
2023/07/19 09:23:26;;;;;;;;;;;11.20;99.90;;;;;;5091602;28;19912;-67
2023/07/19 09:25:54;;;;;;;;;;;11.20;99.90;;;;;;5091102;28;19961;-66
2023/07/19 09:28:24;;;;;;;;;;;11.10;99.90;;;;;;5104183;27;20394;-68
2023/07/19 09:30:55;;;;;;;;;;;11.20;99.90;;;;;;5097693;28;20406;-67
2023/07/19 09:33:22;;;;;;;;;;;11.10;99.90;;;;;;5094899;28;20011;-68
2023/07/19 09:35:52;;;;;;;;;;;11.20;99.90;;;;;;5111329;28;20403;-66
2023/07/19 09:38:20;;;;;;;;;;;11.00;99.90;;;;;;5110987;28;19911;-64
2023/07/19 09:40:46;;;;;;;;;;;11.10;99.90;;;;;;5101399;28;19915;-64
2023/07/19 09:43:16;;;;;;;;;;;11.10;99.90;;;;;;5104556;28;20295;-64
2023/07/19 09:45:43;;;;;;;;;;;11.10;99.90;;;;;;5103555;28;19959;-66
2023/07/19 09:48:10;;;;;;;;;;;11.10;99.90;;;;;;5104807;28;19927;-64
2023/07/19 09:50:40;;;;;;;;;;;10.90;99.90;;;;;;5092077;28;19965;-63
2023/07/19 09:53:10;;;;;;;;;;;10.90;99.90;;;;;;5103674;28;20357;-64
2023/07/19 09:55:37;;;;;;;;;;;10.90;99.90;;;;;;5110168;28;20002;-63
2023/07/19 09:58:22;;;;;;;;;;;10.80;99.90;;;;;;5111748;28;19911;-63
2023/07/19 10:00:48;;;;;;;;;;;10.80;99.90;;;;;;5108663;28;19990;-65
2023/07/19 10:03:19;;;;;;;;;;;10.80;99.90;;;;;;5108352;28;19919;-66
2023/07/19 10:05:46;;;;;;;;;;;10.60;99.90;;;;;;5092035;28;20272;-66
2023/07/19 10:08:12;;;;;;;;;;;10.70;99.90;;;;;;5124533;28;19923;-66
2023/07/19 10:10:42;;;;;;;;;;;10.70;99.90;;;;;;5109678;28;19907;-65
2023/07/19 10:13:09;;;;;;;;;;;10.70;99.90;;;;;;5100866;28;20368;-64
2023/07/19 10:15:36;;;;;;;;;;;10.60;99.90;;;;;;5104234;28;19919;-65
2023/07/19 10:18:10;;;;;;;;;;;10.60;99.90;;;;;;5108359;28;19912;-64
2023/07/19 10:20:37;;;;;;;;;;;10.60;99.90;;;;;;5090978;28;20000;-65
2023/07/19 10:23:04;;;;;;;;;;;10.60;99.90;;;;;;5105409;28;19912;-65
2023/07/19 10:25:31;;;;;;;;;;;10.50;99.90;;;;;;5111581;28;19912;-66
2023/07/19 10:27:59;;;;;;;;;;;10.50;99.90;;;;;;5111762;28;19916;-64
2023/07/19 10:30:44;;;;;;;;;;;10.40;99.90;;;;;;5093741;28;20300;-64
2023/07/19 10:33:19;;;;;;;;;;;10.40;99.90;;;;;;5103395;28;19915;-65
2023/07/19 10:35:46;;;;;;;;;;;10.40;99.90;;;;;;5111922;28;20387;-65
2023/07/19 10:38:13;;;;;;;;;;;10.40;99.90;;;;;;5115024;28;19912;-66
2023/07/19 10:40:40;;;;;;;;;;;10.30;99.90;;;;;;5095252;28;19935;-65
2023/07/19 10:43:07;;;;;;;;;;;10.20;99.90;;;;;;5102857;28;19965;-66
2023/07/19 10:45:34;;;;;;;;;;;10.20;99.90;;;;;;5108526;28;19934;-66
2023/07/19 10:48:00;;;;;;;;;;;10.20;99.90;;;;;;5107931;28;19916;-66
2023/07/19 10:50:27;;;;;;;;;;;10.10;99.90;;;;;;5094233;28;19989;-65
2023/07/19 10:52:54;;;;;;;;;;;10.00;99.90;;;;;;5104044;28;19965;-66
2023/07/19 10:55:20;;;;;;;;;;;10.00;99.90;;;;;;5115296;28;19907;-64
2023/07/19 10:57:47;;;;;;;;;;;10.00;99.90;;;;;;5115333;28;20006;-65
2023/07/19 11:00:14;;;;;;;;;;;10.10;99.90;;;;;;5098471;28;19908;-66
2023/07/19 11:02:41;;;;;;;;;;;10.00;99.90;;;;;;5108446;27;19998;-66
2023/07/19 11:05:08;;;;;;;;;;;10.00;99.90;;;;;;5115443;28;19931;-65
2023/07/19 11:07:36;;;;;;;;;;;10.00;99.90;;;;;;5114969;28;19912;-66
2023/07/19 11:10:04;;;;;;;;;;;10.00;99.90;;;;;;5100269;28;19939;-66
2023/07/19 11:12:33;;;;;;;;;;;10.00;99.90;;;;;;5098070;28;19916;-67
2023/07/19 11:15:01;;;;;;;;;;;10.00;99.90;;;;;;5114711;28;19908;-65
2023/07/19 11:17:28;;;;;;;;;;;10.00;99.90;;;;;;5114390;27;20280;-65
2023/07/19 11:19:55;;;;;;;;;;;9.80;99.90;;;;;;5099894;28;19916;-66
2023/07/19 11:22:23;;;;;;;;;;;9.90;99.90;;;;;;5102480;28;19912;-64
2023/07/19 11:24:50;;;;;;;;;;;9.90;99.90;;;;;;5115092;28;19908;-65
2023/07/19 11:27:17;;;;;;;;;;;9.80;99.90;;;;;;5109572;27;19912;-66
2023/07/19 11:29:47;;;;;;;;;;;9.80;99.90;;;;;;5097176;28;20376;-67
2023/07/19 11:32:20;;;;;;;;;;;9.80;99.90;;;;;;5097079;28;20271;-67
2023/07/19 11:34:49;;;;;;;;;;;9.80;99.90;;;;;;5113194;28;19991;-66
2023/07/19 11:37:17;;;;;;;;;;;9.80;99.90;;;;;;5113646;28;19987;-67
2023/07/19 11:39:43;;;;;;;;;;;9.80;99.90;;;;;;5114537;28;19911;-67
2023/07/19 11:42:10;;;;;;;;;;;9.80;99.90;;;;;;5094294;28;19908;-66
2023/07/19 11:44:44;;;;;;;;;;;9.60;99.90;;;;;;5094361;28;19920;-66
2023/07/19 11:47:11;;;;;;;;;;;9.70;99.90;;;;;;5094123;28;20433;-65
2023/07/19 11:49:38;;;;;;;;;;;9.60;99.90;;;;;;5094389;28;19938;-65
2023/07/19 11:52:05;;;;;;;;;;;9.70;99.90;;;;;;5095407;28;19919;-66
2023/07/19 11:54:32;;;;;;;;;;;9.70;99.90;;;;;;5094281;28;19912;-65
2023/07/19 11:56:59;;;;;;;;;;;9.70;99.90;;;;;;5093533;28;19916;-67
2023/07/19 11:59:25;;;;;;;;;;;9.70;99.90;;;;;;5094289;28;19908;-65
2023/07/19 12:01:54;;;;;;;;;;;9.60;99.90;;;;;;5109099;28;19912;-66
2023/07/19 12:04:21;;;;;;;;;;;9.60;99.90;;;;;;5113431;28;20019;-64
2023/07/19 12:06:47;;;;;;;;;;;9.60;99.90;;;;;;5113404;28;19908;-66
2023/07/19 12:09:14;;;;;;;;;;;9.60;99.90;;;;;;5113370;28;20258;-67
2023/07/19 12:11:41;;;;;;;;;;;9.60;99.90;;;;;;5114366;28;19911;-66
2023/07/19 12:14:08;;;;;;;;;;;9.60;99.90;;;;;;5114412;28;19912;-66
2023/07/19 12:16:34;;;;;;;;;;;9.50;99.90;;;;;;5106015;28;20003;-67
2023/07/19 12:19:01;;;;;;;;;;;9.50;99.90;;;;;;5108493;28;19907;-67
2023/07/19 12:21:28;;;;;;;;;;;9.40;99.90;;;;;;5113914;28;19915;-66
2023/07/19 12:23:54;;;;;;;;;;;9.50;99.90;;;;;;5114174;28;19908;-65
2023/07/19 12:26:21;;;;;;;;;;;9.50;99.90;;;;;;5096215;28;19948;-65
2023/07/19 12:28:48;;;;;;;;;;;9.40;99.90;;;;;;5094038;28;19920;-65
2023/07/19 12:31:16;;;;;;;;;;;9.50;99.90;;;;;;5093786;28;19908;-66
2023/07/19 12:33:42;;;;;;;;;;;9.40;99.90;;;;;;5093293;28;19912;-66
2023/07/19 12:36:09;;;;;;;;;;;9.50;99.90;;;;;;5093568;28;19909;-67
2023/07/19 12:38:36;;;;;;;;;;;9.40;99.90;;;;;;5102748;28;20378;-67
2023/07/19 12:41:03;;;;;;;;;;;9.30;99.90;;;;;;5114060;28;19919;-66
2023/07/19 12:43:29;;;;;;;;;;;9.30;99.90;;;;;;5113929;28;19926;-67
2023/07/19 12:45:56;;;;;;;;;;;9.30;99.90;;;;;;5113811;28;19915;-66
2023/07/19 12:48:23;;;;;;;;;;;9.30;99.90;;;;;;5113327;28;19923;-66
2023/07/19 12:50:49;;;;;;;;;;;9.20;99.90;;;;;;5113815;28;20253;-66
2023/07/19 12:53:18;;;;;;;;;;;9.20;99.90;;;;;;5113880;28;19950;-66
2023/07/19 12:55:46;;;;;;;;;;;9.20;99.90;;;;;;5113778;28;19911;-67
2023/07/19 12:58:13;;;;;;;;;;;9.10;99.90;;;;;;5112969;28;19956;-67
2023/07/19 13:00:40;;;;;;;;;;;9.10;99.90;;;;;;5107341;28;19957;-66
2023/07/19 13:03:07;;;;;;;;;;;9.10;99.90;;;;;;5109651;28;19912;-66
2023/07/19 13:05:33;;;;;;;;;;;9.00;99.90;;;;;;5111348;28;19908;-66
2023/07/19 13:08:00;;;;;;;;;;;8.90;99.90;;;;;;5093042;28;20008;-65
2023/07/19 13:10:27;;;;;;;;;;;8.90;99.90;;;;;;5092886;28;20005;-67
2023/07/19 13:12:53;;;;;;;;;;;9.00;99.90;;;;;;5093056;28;19969;-65
2023/07/19 13:15:20;;;;;;;;;;;9.00;99.90;;;;;;5093263;28;19912;-65
2023/07/19 13:17:47;;;;;;;;;;;8.90;99.90;;;;;;5092947;28;19908;-65
2023/07/19 13:20:14;;;;;;;;;;;8.90;99.90;;;;;;5111853;28;19965;-65
2023/07/19 13:22:40;;;;;;;;;;;9.00;99.90;;;;;;5108402;28;20334;-66
2023/07/19 13:25:07;;;;;;;;;;;8.80;99.90;;;;;;5113022;28;19909;-66
2023/07/19 13:27:34;;;;;;;;;;;8.90;99.90;;;;;;5113859;28;19915;-66
2023/07/19 13:30:01;;;;;;;;;;;8.80;99.90;;;;;;5113649;28;20010;-65
2023/07/19 13:32:28;;;;;;;;;;;8.80;99.90;;;;;;5113264;28;19960;-65
2023/07/19 13:34:54;;;;;;;;;;;8.70;99.90;;;;;;5097062;28;20345;-66
2023/07/19 13:37:21;;;;;;;;;;;8.80;99.90;;;;;;5092322;28;19999;-67
2023/07/19 13:39:47;;;;;;;;;;;8.70;99.90;;;;;;5092696;28;19915;-67
2023/07/19 13:42:15;;;;;;;;;;;8.70;99.90;;;;;;5092642;28;19931;-66
2023/07/19 13:44:42;;;;;;;;;;;8.70;99.90;;;;;;5092472;28;19978;-65
2023/07/19 13:47:08;;;;;;;;;;;8.60;99.90;;;;;;5092744;28;19951;-66
2023/07/19 13:49:36;;;;;;;;;;;8.70;99.90;;;;;;5101404;28;20364;-67
2023/07/19 13:52:02;;;;;;;;;;;8.60;99.90;;;;;;5095110;28;19912;-65
2023/07/19 13:54:29;;;;;;;;;;;8.60;99.90;;;;;;5092299;28;20237;-67
2023/07/19 13:56:56;;;;;;;;;;;8.50;99.90;;;;;;5092384;28;19909;-65
2023/07/19 13:59:23;;;;;;;;;;;8.50;99.90;;;;;;5092406;28;19908;-66
2023/07/19 14:01:50;;;;;;;;;;;8.50;99.90;;;;;;5093257;28;20336;-67
2023/07/19 14:04:16;;;;;;;;;;;8.40;99.90;;;;;;5092586;28;20428;-66
2023/07/19 14:06:43;;;;;;;;;;;8.40;99.90;;;;;;5092332;28;19915;-66
2023/07/19 14:09:10;;;;;;;;;;;8.50;99.90;;;;;;5092455;28;20011;-67
2023/07/19 14:11:37;;;;;;;;;;;8.30;99.90;;;;;;5094540;28;19943;-67
2023/07/19 14:14:03;;;;;;;;;;;8.30;99.90;;;;;;5096426;28;19915;-65
2023/07/19 14:16:30;;;;;;;;;;;8.30;99.90;;;;;;5096434;28;19921;-66
2023/07/19 14:18:57;;;;;;;;;;;8.30;99.90;;;;;;5096124;28;19916;-66